Maple Lake, Minnesota
Current Conditions -  °F | °C
As of 4:34 AM on Thursday 23 Oct 2014 (Local Time) from KMGG Reporting Station
Haze Haze  
Wind Chill: 54°   Ceiling: 400
Heat Index: 54°   Visibility: 4mi
Dew Point: 53°   Wind: 0mph
Humidity: 98%   Direction: NA
Pressure: 29.98"   Gusts: NA
Location:  45.23°N, 94°W
Report Text: KMGG 230934Z AUTO 00000KT 4SM BR OVC004 12/12 A2998 RMK AO2 P0002 T01210118
Loading
Personal Weather Stations






























Interactive Weather Map
Tropical Storm Tracking
New forecast layout! Learn more

10-Day Weather Forecast

Advertisements
Track Severe Weather on mobile